sensor_id;sensor_type;location;lat;lon;timestamp;pressure;altitude;pressure_sealevel;temperature;humidity
46291;BME280;32023;44.444;26.006;2022-08-07T00:01:51;100025.03;;;25.68;49.56
46291;BME280;32023;44.444;26.006;2022-08-07T00:04:23;100020.59;;;25.67;49.51
46291;BME280;32023;44.444;26.006;2022-08-07T00:06:58;100031.41;;;25.65;49.62
46291;BME280;32023;44.444;26.006;2022-08-07T00:10:01;100034.09;;;25.58;49.91
46291;BME280;32023;44.444;26.006;2022-08-07T00:12:48;100035.66;;;25.56;50.21
46291;BME280;32023;44.444;26.006;2022-08-07T00:15:32;100030.00;;;25.56;50.12
46291;BME280;32023;44.444;26.006;2022-08-07T00:18:01;100033.19;;;25.54;50.31
46291;BME280;32023;44.444;26.006;2022-08-07T00:20:35;100031.53;;;25.53;50.29
46291;BME280;32023;44.444;26.006;2022-08-07T00:23:07;100040.00;;;25.53;50.25
46291;BME280;32023;44.444;26.006;2022-08-07T00:25:40;100039.88;;;25.50;50.34
46291;BME280;32023;44.444;26.006;2022-08-07T00:28:19;100037.81;;;25.47;50.12
46291;BME280;32023;44.444;26.006;2022-08-07T00:30:49;100035.72;;;25.44;50.41
46291;BME280;32023;44.444;26.006;2022-08-07T00:33:15;100044.53;;;25.42;50.28
46291;BME280;32023;44.444;26.006;2022-08-07T00:35:49;100036.47;;;25.40;50.75
46291;BME280;32023;44.444;26.006;2022-08-07T00:38:16;100036.38;;;25.37;50.76
46291;BME280;32023;44.444;26.006;2022-08-07T00:40:54;100035.41;;;25.29;51.11
46291;BME280;32023;44.444;26.006;2022-08-07T00:43:34;100040.50;;;25.24;51.01
46291;BME280;32023;44.444;26.006;2022-08-07T00:46:08;100034.69;;;25.17;50.76
46291;BME280;32023;44.444;26.006;2022-08-07T00:48:35;100036.97;;;25.11;51.08
46291;BME280;32023;44.444;26.006;2022-08-07T00:51:01;100034.06;;;25.08;51.24
46291;BME280;32023;44.444;26.006;2022-08-07T00:53:39;100034.78;;;25.05;51.34
46291;BME280;32023;44.444;26.006;2022-08-07T00:56:16;100033.06;;;25.00;51.38
46291;BME280;32023;44.444;26.006;2022-08-07T00:58:45;100038.59;;;24.97;51.14
46291;BME280;32023;44.444;26.006;2022-08-07T01:01:26;100004.22;;;24.75;51.32
46291;BME280;32023;44.444;26.006;2022-08-07T01:03:59;100032.78;;;24.89;51.47
46291;BME280;32023;44.444;26.006;2022-08-07T01:06:36;100031.88;;;24.85;51.55
46291;BME280;32023;44.444;26.006;2022-08-07T01:09:03;100035.91;;;24.84;51.82
46291;BME280;32023;44.444;26.006;2022-08-07T01:11:30;100035.91;;;24.84;52.21
46291;BME280;32023;44.444;26.006;2022-08-07T01:14:02;100034.94;;;24.80;52.23
46291;BME280;32023;44.444;26.006;2022-08-07T01:16:42;100041.66;;;24.76;52.22
46291;BME280;32023;44.444;26.006;2022-08-07T01:19:09;100037.94;;;24.72;52.20
46291;BME280;32023;44.444;26.006;2022-08-07T01:21:37;100038.28;;;24.70;52.11
46291;BME280;32023;44.444;26.006;2022-08-07T01:24:12;100032.22;;;24.68;52.17
46291;BME280;32023;44.444;26.006;2022-08-07T01:26:51;100025.22;;;24.62;52.35
46291;BME280;32023;44.444;26.006;2022-08-07T01:29:21;100034.38;;;24.59;52.66
46291;BME280;32023;44.444;26.006;2022-08-07T01:31:51;100041.56;;;24.57;52.89
46291;BME280;32023;44.444;26.006;2022-08-07T01:34:21;100037.00;;;24.52;53.22
46291;BME280;32023;44.444;26.006;2022-08-07T01:36:54;100031.19;;;24.45;53.33
46291;BME280;32023;44.444;26.006;2022-08-07T01:39:47;100039.44;;;24.38;53.54
46291;BME280;32023;44.444;26.006;2022-08-07T01:45:43;100045.31;;;24.33;54.04
46291;BME280;32023;44.444;26.006;2022-08-07T01:48:22;100032.69;;;24.27;53.97
46291;BME280;32023;44.444;26.006;2022-08-07T01:51:10;100034.59;;;24.23;53.74
46291;BME280;32023;44.444;26.006;2022-08-07T01:53:41;100035.66;;;24.18;53.96
46291;BME280;32023;44.444;26.006;2022-08-07T01:56:14;100042.44;;;24.17;53.99
46291;BME280;32023;44.444;26.006;2022-08-07T01:59:04;100038.84;;;24.17;54.02
46291;BME280;32023;44.444;26.006;2022-08-07T02:01:47;100048.66;;;24.11;54.10
46291;BME280;32023;44.444;26.006;2022-08-07T02:07:09;100042.50;;;24.05;54.57
46291;BME280;32023;44.444;26.006;2022-08-07T02:09:44;100044.47;;;24.05;54.68
46291;BME280;32023;44.444;26.006;2022-08-07T02:12:18;100050.13;;;24.05;55.03
46291;BME280;32023;44.444;26.006;2022-08-07T02:14:49;100051.63;;;24.02;55.00
46291;BME280;32023;44.444;26.006;2022-08-07T02:17:19;100054.00;;;24.00;54.95
46291;BME280;32023;44.444;26.006;2022-08-07T02:19:48;100052.25;;;23.95;55.26
46291;BME280;32023;44.444;26.006;2022-08-07T02:22:24;100057.03;;;23.95;55.28
46291;BME280;32023;44.444;26.006;2022-08-07T02:24:57;100058.59;;;23.92;55.42
46291;BME280;32023;44.444;26.006;2022-08-07T02:27:33;100052.03;;;23.88;55.92
46291;BME280;32023;44.444;26.006;2022-08-07T02:30:09;100067.53;;;23.82;56.00
46291;BME280;32023;44.444;26.006;2022-08-07T02:32:44;100070.25;;;23.79;55.90
46291;BME280;32023;44.444;26.006;2022-08-07T02:35:27;100075.38;;;23.77;56.08
46291;BME280;32023;44.444;26.006;2022-08-07T02:37:59;100064.50;;;23.75;56.20
46291;BME280;32023;44.444;26.006;2022-08-07T02:40:31;100061.22;;;23.73;56.40
46291;BME280;32023;44.444;26.006;2022-08-07T02:42:58;100056.31;;;23.70;56.27
46291;BME280;32023;44.444;26.006;2022-08-07T02:45:29;100069.88;;;23.68;56.22
46291;BME280;32023;44.444;26.006;2022-08-07T02:48:01;100060.06;;;23.62;56.32
46291;BME280;32023;44.444;26.006;2022-08-07T02:50:43;100065.47;;;23.55;56.21
46291;BME280;32023;44.444;26.006;2022-08-07T02:53:20;100065.47;;;23.55;56.32
46291;BME280;32023;44.444;26.006;2022-08-07T02:56:22;100064.53;;;23.51;56.29
46291;BME280;32023;44.444;26.006;2022-08-07T02:59:12;100064.53;;;23.51;56.28
46291;BME280;32023;44.444;26.006;2022-08-07T03:01:55;100063.59;;;23.47;56.41
46291;BME280;32023;44.444;26.006;2022-08-07T03:04:35;100067.56;;;23.46;56.62
46291;BME280;32023;44.444;26.006;2022-08-07T03:07:17;100075.66;;;23.47;57.23
46291;BME280;32023;44.444;26.006;2022-08-07T03:09:54;100076.00;;;23.46;57.56
46291;BME280;32023;44.444;26.006;2022-08-07T03:12:28;100073.19;;;23.46;57.48
46291;BME280;32023;44.444;26.006;2022-08-07T03:15:24;100085.97;;;23.43;57.48
46291;BME280;32023;44.444;26.006;2022-08-07T03:18:19;100078.72;;;23.42;57.84
46291;BME280;32023;44.444;26.006;2022-08-07T03:20:57;100079.53;;;23.43;58.08
46291;BME280;32023;44.444;26.006;2022-08-07T03:23:34;100087.97;;;23.43;57.95
46291;BME280;32023;44.444;26.006;2022-08-07T03:26:16;100086.31;;;23.42;57.45
46291;BME280;32023;44.444;26.006;2022-08-07T03:28:44;100083.50;;;23.42;57.47
46291;BME280;32023;44.444;26.006;2022-08-07T03:31:16;100086.31;;;23.42;57.21
46291;BME280;32023;44.444;26.006;2022-08-07T03:34:02;100090.28;;;23.41;56.98
46291;BME280;32023;44.444;26.006;2022-08-07T03:36:37;100085.63;;;23.45;56.79
46291;BME280;32023;44.444;26.006;2022-08-07T03:39:36;100079.53;;;23.43;56.80
46291;BME280;32023;44.444;26.006;2022-08-07T03:42:07;100088.91;;;23.47;56.59
46291;BME280;32023;44.444;26.006;2022-08-07T03:44:42;100082.13;;;23.48;56.63
46291;BME280;32023;44.444;26.006;2022-08-07T03:47:32;100080.13;;;23.48;56.44
46291;BME280;32023;44.444;26.006;2022-08-07T03:50:10;100084.22;;;23.51;56.36
46291;BME280;32023;44.444;26.006;2022-08-07T03:52:37;100098.38;;;23.55;56.65
46291;BME280;32023;44.444;26.006;2022-08-07T03:57:56;100090.06;;;23.58;56.31
46291;BME280;32023;44.444;26.006;2022-08-07T04:00:26;100090.66;;;23.52;56.39
46291;BME280;32023;44.444;26.006;2022-08-07T04:02:59;100091.34;;;23.61;56.21
46291;BME280;32023;44.444;26.006;2022-08-07T04:05:37;100091.94;;;23.66;56.31
46291;BME280;32023;44.444;26.006;2022-08-07T04:08:12;100103.28;;;23.70;56.02
46291;BME280;32023;44.444;26.006;2022-08-07T04:10:48;100093.78;;;23.74;55.78
46291;BME280;32023;44.444;26.006;2022-08-07T04:13:23;100099.63;;;23.81;55.82
46291;BME280;32023;44.444;26.006;2022-08-07T04:15:53;100102.22;;;23.86;55.63
46291;BME280;32023;44.444;26.006;2022-08-07T04:18:26;100120.56;;;23.96;55.34
46291;BME280;32023;44.444;26.006;2022-08-07T04:20:55;100117.63;;;24.05;55.03
46291;BME280;32023;44.444;26.006;2022-08-07T04:23:33;100107.75;;;24.11;54.61
46291;BME280;32023;44.444;26.006;2022-08-07T04:26:01;100109.63;;;24.19;54.36
46291;BME280;32023;44.444;26.006;2022-08-07T04:28:29;100119.94;;;24.27;54.08
46291;BME280;32023;44.444;26.006;2022-08-07T04:31:05;100113.78;;;24.37;53.84
46291;BME280;32023;44.444;26.006;2022-08-07T04:33:40;100110.81;;;24.45;53.52
46291;BME280;32023;44.444;26.006;2022-08-07T04:36:08;100114.66;;;24.53;53.09
46291;BME280;32023;44.444;26.006;2022-08-07T04:38:35;100120.97;;;24.62;52.79
46291;BME280;32023;44.444;26.006;2022-08-07T04:41:05;100121.16;;;24.69;52.55
46291;BME280;32023;44.444;26.006;2022-08-07T04:43:41;100118.06;;;24.74;52.44
46291;BME280;32023;44.444;26.006;2022-08-07T04:46:37;100118.97;;;24.78;52.19
46291;BME280;32023;44.444;26.006;2022-08-07T04:49:19;100132.13;;;24.86;52.16
46291;BME280;32023;44.444;26.006;2022-08-07T04:52:09;100126.66;;;24.93;52.08
46291;BME280;32023;44.444;26.006;2022-08-07T05:01:07;100128.69;;;25.09;52.24
46291;BME280;32023;44.444;26.006;2022-08-07T05:03:44;100134.97;;;25.18;52.25
46291;BME280;32023;44.444;26.006;2022-08-07T05:16:44;100138.50;;;25.46;51.49
46291;BME280;32023;44.444;26.006;2022-08-07T05:19:24;100127.63;;;25.60;51.02
46291;BME280;32023;44.444;26.006;2022-08-07T05:21:56;100135.16;;;25.72;50.57
46291;BME280;32023;44.444;26.006;2022-08-07T05:24:26;100143.88;;;25.82;50.22
46291;BME280;32023;44.444;26.006;2022-08-07T05:26:58;100134.81;;;25.93;49.67
46291;BME280;32023;44.444;26.006;2022-08-07T05:29:29;100132.69;;;26.05;49.53
46291;BME280;32023;44.444;26.006;2022-08-07T05:32:02;100141.16;;;26.21;49.32
46291;BME280;32023;44.444;26.006;2022-08-07T05:34:36;100135.41;;;26.37;48.91
46291;BME280;32023;44.444;26.006;2022-08-07T05:37:13;100149.91;;;26.54;48.51
46291;BME280;32023;44.444;26.006;2022-08-07T05:39:40;100143.38;;;26.69;48.25
46291;BME280;32023;44.444;26.006;2022-08-07T05:42:11;100152.22;;;26.87;47.65
46291;BME280;32023;44.444;26.006;2022-08-07T05:44:48;100153.00;;;27.07;46.99
46291;BME280;32023;44.444;26.006;2022-08-07T05:47:18;100153.63;;;27.19;46.43
46291;BME280;32023;44.444;26.006;2022-08-07T05:49:49;100161.09;;;27.31;46.07
46291;BME280;32023;44.444;26.006;2022-08-07T05:52:36;100152.44;;;27.43;45.47
46291;BME280;32023;44.444;26.006;2022-08-07T05:55:08;100149.44;;;27.55;45.17
46291;BME280;32023;44.444;26.006;2022-08-07T05:57:46;100144.00;;;27.69;45.19
46291;BME280;32023;44.444;26.006;2022-08-07T06:00:23;100151.09;;;27.83;44.71
46291;BME280;32023;44.444;26.006;2022-08-07T06:03:06;100156.97;;;27.97;44.65
46291;BME280;32023;44.444;26.006;2022-08-07T06:05:56;100157.59;;;28.09;44.22
46291;BME280;32023;44.444;26.006;2022-08-07T06:08:26;100148.78;;;28.18;43.42
46291;BME280;32023;44.444;26.006;2022-08-07T06:14:42;100158.28;;;28.33;43.17
46291;BME280;32023;44.444;26.006;2022-08-07T06:17:41;100149.53;;;28.41;42.45
46291;BME280;32023;44.444;26.006;2022-08-07T06:20:23;100149.69;;;28.55;41.81
46291;BME280;32023;44.444;26.006;2022-08-07T06:23:10;100146.56;;;28.64;41.86
46291;BME280;32023;44.444;26.006;2022-08-07T06:25:58;100157.31;;;28.78;41.23
46291;BME280;32023;44.444;26.006;2022-08-07T06:28:26;100148.53;;;28.93;41.29
46291;BME280;32023;44.444;26.006;2022-08-07T06:31:04;100150.72;;;29.07;41.40
46291;BME280;32023;44.444;26.006;2022-08-07T06:33:45;100151.72;;;29.25;40.71
46291;BME280;32023;44.444;26.006;2022-08-07T06:36:15;100152.25;;;29.34;40.46
46291;BME280;32023;44.444;26.006;2022-08-07T06:38:57;100150.34;;;29.49;40.25
46291;BME280;32023;44.444;26.006;2022-08-07T06:41:42;100148.78;;;29.58;39.93
46291;BME280;32023;44.444;26.006;2022-08-07T06:44:29;100161.03;;;29.70;39.67
46291;BME280;32023;44.444;26.006;2022-08-07T06:47:40;100166.00;;;29.80;39.69
46291;BME280;32023;44.444;26.006;2022-08-07T06:50:41;100162.84;;;29.88;39.41
46291;BME280;32023;44.444;26.006;2022-08-07T06:53:50;100175.09;;;29.99;39.12
46291;BME280;32023;44.444;26.006;2022-08-07T07:03:37;100162.66;;;30.22;38.95
46291;BME280;32023;44.444;26.006;2022-08-07T07:10:06;100171.41;;;30.61;37.98
46291;BME280;32023;44.444;26.006;2022-08-07T07:16:01;100172.28;;;30.82;37.85
46291;BME280;32023;44.444;26.006;2022-08-07T07:22:29;100178.94;;;31.15;36.93
46291;BME280;32023;44.444;26.006;2022-08-07T07:25:32;100183.00;;;31.17;36.69
46291;BME280;32023;44.444;26.006;2022-08-07T07:31:43;100189.56;;;31.49;36.01
46291;BME280;32023;44.444;26.006;2022-08-07T07:34:15;100191.22;;;31.61;35.56
46291;BME280;32023;44.444;26.006;2022-08-07T07:36:45;100193.25;;;31.68;35.53
46291;BME280;32023;44.444;26.006;2022-08-07T07:39:13;100184.31;;;31.80;35.51
46291;BME280;32023;44.444;26.006;2022-08-07T07:41:50;100192.84;;;31.87;35.19
46291;BME280;32023;44.444;26.006;2022-08-07T07:44:20;100197.72;;;32.00;35.40
46291;BME280;32023;44.444;26.006;2022-08-07T07:50:13;100197.28;;;32.23;34.68
46291;BME280;32023;44.444;26.006;2022-08-07T07:52:47;100208.69;;;32.27;34.41
46291;BME280;32023;44.444;26.006;2022-08-07T07:55:41;100218.06;;;32.27;34.51
46291;BME280;32023;44.444;26.006;2022-08-07T07:58:49;100206.56;;;32.52;34.25
46291;BME280;32023;44.444;26.006;2022-08-07T08:01:28;100203.28;;;32.68;33.84
46291;BME280;32023;44.444;26.006;2022-08-07T08:07:07;100188.91;;;32.96;33.52
46291;BME280;32023;44.444;26.006;2022-08-07T08:09:45;100194.13;;;33.15;33.05
46291;BME280;32023;44.444;26.006;2022-08-07T08:12:19;100193.69;;;33.20;33.15
46291;BME280;32023;44.444;26.006;2022-08-07T08:15:17;100181.88;;;33.18;32.42
46291;BME280;32023;44.444;26.006;2022-08-07T08:17:47;100184.75;;;33.11;31.87
46291;BME280;32023;44.444;26.006;2022-08-07T08:20:26;100195.38;;;33.07;32.19
46291;BME280;32023;44.444;26.006;2022-08-07T08:22:56;100184.31;;;33.16;31.91
46291;BME280;32023;44.444;26.006;2022-08-07T08:25:48;100186.34;;;33.23;32.33
46291;BME280;32023;44.444;26.006;2022-08-07T08:28:40;100194.75;;;33.44;32.26
46291;BME280;32023;44.444;26.006;2022-08-07T08:31:30;100192.19;;;33.60;31.86
46291;BME280;32023;44.444;26.006;2022-08-07T08:37:13;100198.84;;;33.98;30.55
46291;BME280;32023;44.444;26.006;2022-08-07T08:40:08;100204.03;;;34.10;30.72
46291;BME280;32023;44.444;26.006;2022-08-07T08:46:15;100215.13;;;34.01;30.46
46291;BME280;32023;44.444;26.006;2022-08-07T08:49:17;100207.09;;;34.30;30.65
46291;BME280;32023;44.444;26.006;2022-08-07T08:52:37;100203.50;;;34.60;30.43
46291;BME280;32023;44.444;26.006;2022-08-07T08:55:29;100203.88;;;34.62;29.76
46291;BME280;32023;44.444;26.006;2022-08-07T09:01:14;100199.38;;;34.64;29.16
46291;BME280;32023;44.444;26.006;2022-08-07T09:15:10;100195.50;;;35.12;29.02
46291;BME280;32023;44.444;26.006;2022-08-07T09:17:48;100185.63;;;35.16;28.44
46291;BME280;32023;44.444;26.006;2022-08-07T09:30:08;100185.16;;;35.75;27.85
46291;BME280;32023;44.444;26.006;2022-08-07T09:33:45;100192.00;;;35.81;28.19
46291;BME280;32023;44.444;26.006;2022-08-07T09:36:35;100196.69;;;35.95;27.41
46291;BME280;32023;44.444;26.006;2022-08-07T09:48:41;100174.97;;;36.60;26.88
46291;BME280;32023;44.444;26.006;2022-08-07T09:54:36;100178.25;;;36.62;25.78
46291;BME280;32023;44.444;26.006;2022-08-07T10:00:10;100173.44;;;36.75;26.01
46291;BME280;32023;44.444;26.006;2022-08-07T10:08:01;100182.88;;;37.47;24.76
46291;BME280;32023;44.444;26.006;2022-08-07T10:10:47;100170.25;;;37.93;24.35
46291;BME280;32023;44.444;26.006;2022-08-07T10:18:58;100163.59;;;39.62;22.85
46291;BME280;32023;44.444;26.006;2022-08-07T10:27:03;100157.53;;;40.20;21.41
46291;BME280;32023;44.444;26.006;2022-08-07T10:29:46;100158.75;;;40.53;21.14
46291;BME280;32023;44.444;26.006;2022-08-07T10:35:46;100149.75;;;42.23;19.77
46291;BME280;32023;44.444;26.006;2022-08-07T10:41:43;100156.91;;;45.99;15.99
46291;BME280;32023;44.444;26.006;2022-08-07T10:44:51;100154.47;;;47.04;15.20
46291;BME280;32023;44.444;26.006;2022-08-07T10:50:28;100165.38;;;44.21;16.93
46291;BME280;32023;44.444;26.006;2022-08-07T10:54:16;100167.41;;;45.27;16.17
46291;BME280;32023;44.444;26.006;2022-08-07T11:12:29;100147.25;;;44.65;16.15
46291;BME280;32023;44.444;26.006;2022-08-07T11:15:38;100147.66;;;45.45;15.40
46291;BME280;32023;44.444;26.006;2022-08-07T11:29:14;100120.97;;;43.16;17.27
46291;BME280;32023;44.444;26.006;2022-08-07T11:46:15;100113.66;;;39.78;20.14
46291;BME280;32023;44.444;26.006;2022-08-07T12:07:21;100110.06;;;37.22;22.63
46291;BME280;32023;44.444;26.006;2022-08-07T12:10:05;100102.44;;;36.95;22.92
46291;BME280;32023;44.444;26.006;2022-08-07T12:16:06;100103.75;;;36.55;23.76
46291;BME280;32023;44.444;26.006;2022-08-07T12:24:47;100097.72;;;35.40;24.23
46291;BME280;32023;44.444;26.006;2022-08-07T12:27:34;100085.09;;;35.61;24.81
46291;BME280;32023;44.444;26.006;2022-08-07T12:30:05;100089.66;;;36.01;24.18
46291;BME280;32023;44.444;26.006;2022-08-07T12:35:20;100085.28;;;36.16;24.36
46291;BME280;32023;44.444;26.006;2022-08-07T12:37:50;100074.63;;;36.37;23.90
46291;BME280;32023;44.444;26.006;2022-08-07T12:40:24;100082.78;;;36.18;23.45
46291;BME280;32023;44.444;26.006;2022-08-07T12:43:02;100095.41;;;36.01;23.40
46291;BME280;32023;44.444;26.006;2022-08-07T12:55:23;100086.81;;;35.55;24.14
46291;BME280;32023;44.444;26.006;2022-08-07T12:57:38;100072.81;;;35.60;24.05
46291;BME280;32023;44.444;26.006;2022-08-07T13:00:08;100078.72;;;35.73;23.72
46291;BME280;32023;44.444;26.006;2022-08-07T13:05:57;100068.06;;;35.73;23.75
46291;BME280;32023;44.444;26.006;2022-08-07T13:08:47;100059.25;;;35.64;24.56
46291;BME280;32023;44.444;26.006;2022-08-07T13:14:42;100065.31;;;35.43;24.25
46291;BME280;32023;44.444;26.006;2022-08-07T13:17:39;100054.56;;;35.28;24.36
46291;BME280;32023;44.444;26.006;2022-08-07T13:20:51;100055.28;;;35.32;24.43
46291;BME280;32023;44.444;26.006;2022-08-07T13:24:00;100046.97;;;35.41;24.81
46291;BME280;32023;44.444;26.006;2022-08-07T13:43:22;100037.50;;;35.67;23.35
46291;BME280;32023;44.444;26.006;2022-08-07T13:46:01;100042.81;;;35.45;23.31
46291;BME280;32023;44.444;26.006;2022-08-07T13:48:59;100012.06;;;34.99;23.61
46291;BME280;32023;44.444;26.006;2022-08-07T13:51:35;100032.66;;;35.17;24.20
46291;BME280;32023;44.444;26.006;2022-08-07T13:54:31;100029.16;;;35.30;24.26
46291;BME280;32023;44.444;26.006;2022-08-07T13:57:06;100030.84;;;35.27;24.48
46291;BME280;32023;44.444;26.006;2022-08-07T13:59:53;100035.19;;;35.12;24.88
46291;BME280;32023;44.444;26.006;2022-08-07T14:05:51;100029.59;;;35.01;23.61
46291;BME280;32023;44.444;26.006;2022-08-07T14:08:51;100033.94;;;34.86;24.16
46291;BME280;32023;44.444;26.006;2022-08-07T14:18:03;100030.16;;;34.93;23.88
46291;BME280;32023;44.444;26.006;2022-08-07T14:31:06;100030.16;;;34.36;23.99
46291;BME280;32023;44.444;26.006;2022-08-07T14:40:55;100008.72;;;34.20;24.46
46291;BME280;32023;44.444;26.006;2022-08-07T14:43:37;100018.47;;;34.23;24.39
46291;BME280;32023;44.444;26.006;2022-08-07T14:46:12;100014.28;;;34.31;24.34
46291;BME280;32023;44.444;26.006;2022-08-07T14:48:45;100015.00;;;34.39;24.49
46291;BME280;32023;44.444;26.006;2022-08-07T14:54:44;100018.81;;;34.59;23.93
46291;BME280;32023;44.444;26.006;2022-08-07T14:57:14;100019.81;;;34.45;24.09
46291;BME280;32023;44.444;26.006;2022-08-07T14:59:45;100018.44;;;34.26;24.44
46291;BME280;32023;44.444;26.006;2022-08-07T15:02:37;100022.72;;;34.08;24.71
46291;BME280;32023;44.444;26.006;2022-08-07T15:05:07;100019.97;;;34.01;25.04
46291;BME280;32023;44.444;26.006;2022-08-07T15:18:21;100007.84;;;33.52;24.75
46291;BME280;32023;44.444;26.006;2022-08-07T15:24:42;100022.91;;;33.56;25.32
46291;BME280;32023;44.444;26.006;2022-08-07T15:27:15;100021.63;;;33.61;25.07
46291;BME280;32023;44.444;26.006;2022-08-07T15:30:07;100027.34;;;33.61;25.00
46291;BME280;32023;44.444;26.006;2022-08-07T15:32:54;100023.22;;;33.62;24.66
46291;BME280;32023;44.444;26.006;2022-08-07T15:39:09;100015.78;;;33.34;24.83
46291;BME280;32023;44.444;26.006;2022-08-07T15:48:13;100024.44;;;33.23;25.51
46291;BME280;32023;44.444;26.006;2022-08-07T15:50:55;100018.78;;;33.16;25.34
46291;BME280;32023;44.444;26.006;2022-08-07T15:53:37;100022.06;;;33.11;25.54
46291;BME280;32023;44.444;26.006;2022-08-07T15:56:10;100009.06;;;33.07;25.53
46291;BME280;32023;44.444;26.006;2022-08-07T15:59:00;100022.94;;;33.05;25.63
46291;BME280;32023;44.444;26.006;2022-08-07T16:01:34;100011.94;;;33.03;25.53
46291;BME280;32023;44.444;26.006;2022-08-07T16:04:29;100024.22;;;33.00;25.43
46291;BME280;32023;44.444;26.006;2022-08-07T16:07:17;100025.06;;;32.97;26.16
46291;BME280;32023;44.444;26.006;2022-08-07T16:09:50;100025.47;;;32.96;25.86
46291;BME280;32023;44.444;26.006;2022-08-07T16:12:41;100034.91;;;32.85;25.24
46291;BME280;32023;44.444;26.006;2022-08-07T16:20:39;100038.63;;;32.75;25.75
46291;BME280;32023;44.444;26.006;2022-08-07T16:23:23;100025.22;;;32.72;25.93
46291;BME280;32023;44.444;26.006;2022-08-07T16:29:20;100033.84;;;32.62;26.61
46291;BME280;32023;44.444;26.006;2022-08-07T16:32:01;100032.22;;;32.61;26.54
46291;BME280;32023;44.444;26.006;2022-08-07T16:35:13;100027.34;;;32.54;26.19
46291;BME280;32023;44.444;26.006;2022-08-07T16:46:44;100035.63;;;32.31;26.75
46291;BME280;32023;44.444;26.006;2022-08-07T16:55:13;100049.13;;;32.16;26.61
46291;BME280;32023;44.444;26.006;2022-08-07T17:00:22;100043.03;;;32.07;26.44
46291;BME280;32023;44.444;26.006;2022-08-07T17:05:42;100057.72;;;31.98;26.66
46291;BME280;32023;44.444;26.006;2022-08-07T17:08:31;100062.59;;;31.94;26.80
46291;BME280;32023;44.444;26.006;2022-08-07T17:11:04;100055.28;;;31.90;26.95
46291;BME280;32023;44.444;26.006;2022-08-07T17:17:00;100068.75;;;31.79;27.03
46291;BME280;32023;44.444;26.006;2022-08-07T17:19:40;100081.78;;;31.76;27.18
46291;BME280;32023;44.444;26.006;2022-08-07T17:22:44;100077.31;;;31.68;27.77
46291;BME280;32023;44.444;26.006;2022-08-07T17:25:36;100086.66;;;31.62;27.69
46291;BME280;32023;44.444;26.006;2022-08-07T17:28:30;100090.31;;;31.51;27.98
46291;BME280;32023;44.444;26.006;2022-08-07T17:31:10;100093.97;;;31.48;27.96
46291;BME280;32023;44.444;26.006;2022-08-07T17:33:37;100093.56;;;31.46;27.97
46291;BME280;32023;44.444;26.006;2022-08-07T17:36:19;100096.84;;;31.41;27.94
46291;BME280;32023;44.444;26.006;2022-08-07T17:39:13;100096.84;;;31.34;28.33
46291;BME280;32023;44.444;26.006;2022-08-07T17:42:00;100100.47;;;31.24;28.41
46291;BME280;32023;44.444;26.006;2022-08-07T17:50:15;100105.72;;;36.78;21.61
46291;BME280;32023;44.444;26.006;2022-08-07T18:02:47;100135.28;;;41.56;16.22
46291;BME280;32023;44.444;26.006;2022-08-07T18:09:09;100152.06;;;41.79;16.35
46291;BME280;32023;44.444;26.006;2022-08-07T18:14:38;100156.22;;;41.78;16.42
46291;BME280;32023;44.444;26.006;2022-08-07T18:20:26;100173.41;;;41.33;17.30
46291;BME280;32023;44.444;26.006;2022-08-07T18:23:06;100177.38;;;40.96;17.65
46291;BME280;32023;44.444;26.006;2022-08-07T18:25:41;100181.44;;;40.42;18.27
46291;BME280;32023;44.444;26.006;2022-08-07T18:28:20;100175.16;;;38.83;19.89
46291;BME280;32023;44.444;26.006;2022-08-07T18:31:07;100186.22;;;37.10;22.23
46291;BME280;32023;44.444;26.006;2022-08-07T18:34:06;100199.97;;;35.93;24.08
46291;BME280;32023;44.444;26.006;2022-08-07T18:37:19;100195.88;;;34.84;25.46
46291;BME280;32023;44.444;26.006;2022-08-07T18:43:04;100206.00;;;33.03;28.90
46291;BME280;32023;44.444;26.006;2022-08-07T18:46:02;100227.00;;;32.29;30.56
46291;BME280;32023;44.444;26.006;2022-08-07T18:48:53;100226.59;;;31.85;31.22
46291;BME280;32023;44.444;26.006;2022-08-07T18:52:08;100233.47;;;31.45;32.42
46291;BME280;32023;44.444;26.006;2022-08-07T18:55:28;100236.22;;;31.06;34.20
46291;BME280;32023;44.444;26.006;2022-08-07T19:04:12;100235.28;;;30.19;37.87
46291;BME280;32023;44.444;26.006;2022-08-07T19:06:46;100218.81;;;29.88;38.53
46291;BME280;32023;44.444;26.006;2022-08-07T19:09:27;100252.56;;;29.96;38.89
46291;BME280;32023;44.444;26.006;2022-08-07T19:18:44;100243.19;;;31.23;36.48
46291;BME280;32023;44.444;26.006;2022-08-07T19:24:41;100258.38;;;30.14;38.20
46291;BME280;32023;44.444;26.006;2022-08-07T19:27:40;100244.66;;;29.76;38.79
46291;BME280;32023;44.444;26.006;2022-08-07T19:30:15;100255.44;;;29.59;39.45
46291;BME280;32023;44.444;26.006;2022-08-07T19:32:50;100268.69;;;29.45;39.67
46291;BME280;32023;44.444;26.006;2022-08-07T19:35:34;100259.63;;;29.32;40.15
46291;BME280;32023;44.444;26.006;2022-08-07T19:41:33;100274.97;;;28.98;40.38
46291;BME280;32023;44.444;26.006;2022-08-07T19:44:14;100278.50;;;28.88;40.22
46291;BME280;32023;44.444;26.006;2022-08-07T19:46:47;100287.28;;;28.79;40.19
46291;BME280;32023;44.444;26.006;2022-08-07T19:49:23;100292.09;;;28.75;39.97
46291;BME280;32023;44.444;26.006;2022-08-07T19:52:01;100286.69;;;28.66;39.80
46291;BME280;32023;44.444;26.006;2022-08-07T19:55:06;100288.53;;;28.55;40.11
46291;BME280;32023;44.444;26.006;2022-08-07T19:58:01;100289.97;;;28.42;40.57